createdAt,value
2023-04-26T00:10:17.467Z,3.63
2023-04-26T00:12:44.283Z,3.90
2023-04-26T00:15:11.102Z,4.43
2023-04-26T00:17:37.914Z,4.10
2023-04-26T00:20:07.864Z,3.90
2023-04-26T00:22:34.612Z,4.07
2023-04-26T00:25:01.311Z,4.57
2023-04-26T00:27:28.107Z,4.80
2023-04-26T00:29:55.339Z,4.40
2023-04-26T00:32:22.137Z,4.23
2023-04-26T00:34:48.905Z,4.50
2023-04-26T00:37:17.885Z,4.63
2023-04-26T00:39:44.549Z,5.53
2023-04-26T00:42:11.881Z,4.60
2023-04-26T00:44:40.605Z,5.07
2023-04-26T00:47:07.413Z,5.23
2023-04-26T00:49:34.244Z,5.13
2023-04-26T00:52:01.200Z,5.67
2023-04-26T00:54:28.923Z,4.90
2023-04-26T00:56:55.862Z,5.67
2023-04-26T00:59:22.821Z,5.33
2023-04-26T01:01:49.697Z,5.17
2023-04-26T01:04:16.867Z,5.17
2023-04-26T01:06:44.386Z,4.37
2023-04-26T01:09:14.996Z,4.60
2023-04-26T01:11:42.450Z,4.97
2023-04-26T01:14:09.999Z,4.40
2023-04-26T01:16:38.736Z,4.70
2023-04-26T01:19:13.250Z,4.57
2023-04-26T01:21:40.832Z,4.90
2023-04-26T01:24:09.461Z,4.03
2023-04-26T01:26:45.681Z,4.50
2023-04-26T01:29:14.848Z,4.70
2023-04-26T01:31:41.659Z,4.80
2023-04-26T01:34:08.332Z,5.17
2023-04-26T01:36:35.096Z,4.77
2023-04-26T01:39:01.930Z,4.63
2023-04-26T01:41:28.819Z,4.80
2023-04-26T01:43:55.924Z,4.53
2023-04-26T01:46:22.803Z,5.17
2023-04-26T01:48:49.573Z,5.57
2023-04-26T01:51:17.157Z,5.13
2023-04-26T01:53:44.119Z,4.67
2023-04-26T01:56:10.914Z,5.50
2023-04-26T01:58:37.703Z,5.20
2023-04-26T02:01:08.522Z,4.97
2023-04-26T02:03:37.005Z,4.63
2023-04-26T02:06:03.987Z,5.00
2023-04-26T02:08:30.758Z,5.70
2023-04-26T02:10:57.553Z,4.80
2023-04-26T02:13:24.821Z,5.47
2023-04-26T02:15:51.868Z,4.70
2023-04-26T02:18:22.232Z,4.93
2023-04-26T02:20:50.264Z,6.20
2023-04-26T02:23:17.286Z,5.40
2023-04-26T02:25:48.473Z,5.40
2023-04-26T02:28:17.445Z,5.13
2023-04-26T02:30:44.908Z,5.00
2023-04-26T02:33:11.938Z,4.70
2023-04-26T02:35:39.270Z,5.20
2023-04-26T02:38:06.127Z,5.07
2023-04-26T02:40:32.929Z,5.17
2023-04-26T02:43:00.507Z,5.00
2023-04-26T02:45:27.478Z,5.10
2023-04-26T02:47:54.249Z,5.83
2023-04-26T02:50:21.233Z,5.53
2023-04-26T02:52:49.430Z,5.67
2023-04-26T02:55:16.413Z,5.07
2023-04-26T02:57:43.144Z,5.40
2023-04-26T03:00:11.758Z,5.57
2023-04-26T03:02:39.011Z,5.10
2023-04-26T03:05:06.280Z,5.07
2023-04-26T03:07:33.304Z,5.47
2023-04-26T03:10:00.541Z,5.37
2023-04-26T03:12:28.908Z,5.40
2023-04-26T03:14:55.730Z,5.77
2023-04-26T03:17:24.086Z,5.33
2023-04-26T03:19:51.043Z,5.60
2023-04-26T03:22:18.552Z,4.80
2023-04-26T03:24:46.972Z,5.90
2023-04-26T03:27:16.003Z,5.73
2023-04-26T03:29:44.198Z,5.27
2023-04-26T03:32:11.539Z,5.20
2023-04-26T03:34:38.304Z,5.90
2023-04-26T03:37:05.170Z,5.50
2023-04-26T03:39:32.046Z,5.33
2023-04-26T03:41:58.793Z,5.97
2023-04-26T03:44:25.561Z,6.13
2023-04-26T03:46:52.360Z,5.97
2023-04-26T03:49:19.474Z,5.70
2023-04-26T03:51:46.332Z,6.30
2023-04-26T03:54:15.882Z,5.87
2023-04-26T03:56:42.814Z,6.43
2023-04-26T03:59:10.165Z,6.60
2023-04-26T04:01:38.282Z,6.60
2023-04-26T04:04:05.379Z,6.53
2023-04-26T04:06:33.082Z,8.33
2023-04-26T04:09:01.224Z,7.20
2023-04-26T04:11:27.989Z,7.63
2023-04-26T04:13:54.731Z,6.73
2023-04-26T04:16:22.013Z,7.27
2023-04-26T04:18:48.968Z,7.43
2023-04-26T04:21:15.729Z,7.63
2023-04-26T04:23:44.243Z,7.27
2023-04-26T04:26:12.784Z,7.23
2023-04-26T04:28:41.729Z,7.27
2023-04-26T04:31:10.009Z,8.00
2023-04-26T04:33:37.356Z,7.37
2023-04-26T04:36:06.924Z,8.63
2023-04-26T04:38:33.794Z,7.43
2023-04-26T04:41:00.722Z,7.37
2023-04-26T04:43:28.185Z,6.83
2023-04-26T04:45:55.730Z,6.67
2023-04-26T04:48:22.695Z,6.67
2023-04-26T04:50:49.838Z,7.43
2023-04-26T04:53:17.560Z,6.77
2023-04-26T04:55:44.518Z,7.63
2023-04-26T04:58:14.941Z,7.97
2023-04-26T05:00:42.202Z,6.93
2023-04-26T05:03:35.055Z,7.23
2023-04-26T05:06:03.460Z,7.13
2023-04-26T05:08:30.203Z,7.83
2023-04-26T05:11:01.251Z,7.53
2023-04-26T05:13:29.099Z,7.63
2023-04-26T05:15:55.919Z,7.70
2023-04-26T05:18:23.046Z,8.50
2023-04-26T05:20:49.742Z,7.30
2023-04-26T05:23:16.846Z,7.20
2023-04-26T05:25:43.630Z,6.80
2023-04-26T05:28:46.044Z,6.50
2023-04-26T05:31:21.923Z,6.53
2023-04-26T05:33:57.600Z,5.93
2023-04-26T05:36:30.454Z,6.40
2023-04-26T05:38:57.302Z,7.83
2023-04-26T05:41:24.088Z,7.30
2023-04-26T05:43:51.494Z,6.47
2023-04-26T05:46:18.398Z,6.43
2023-04-26T05:48:45.238Z,7.30
2023-04-26T05:51:12.400Z,6.50
2023-04-26T05:53:39.230Z,6.60
2023-04-26T05:56:07.303Z,6.73
2023-04-26T05:58:34.798Z,6.60
2023-04-26T06:01:03.185Z,6.27
2023-04-26T06:03:30.225Z,6.70
2023-04-26T06:05:57.466Z,6.70
2023-04-26T06:08:24.429Z,7.50
2023-04-26T06:10:51.430Z,6.40
2023-04-26T06:13:18.119Z,6.70
2023-04-26T06:15:44.820Z,5.73
2023-04-26T06:18:11.788Z,5.43
2023-04-26T06:20:38.565Z,5.43
2023-04-26T06:23:07.294Z,6.00
2023-04-26T06:25:34.471Z,5.67
2023-04-26T06:28:01.358Z,6.30
2023-04-26T06:30:28.217Z,6.50
2023-04-26T06:32:55.080Z,5.83
2023-04-26T06:35:23.499Z,5.73
2023-04-26T06:37:50.802Z,5.93
2023-04-26T06:40:17.742Z,3.87
2023-04-26T06:42:45.195Z,3.73
2023-04-26T06:45:32.434Z,4.30
2023-04-26T06:48:01.844Z,5.00
2023-04-26T06:50:28.721Z,4.47
2023-04-26T06:52:55.446Z,3.77
2023-04-26T06:55:22.162Z,7.90
2023-04-26T06:57:49.670Z,4.70
2023-04-26T07:00:16.492Z,4.20
2023-04-26T07:02:43.299Z,4.80
2023-04-26T07:05:10.342Z,4.40
2023-04-26T07:07:37.227Z,3.50
2023-04-26T07:10:04.129Z,3.90
2023-04-26T07:12:31.337Z,4.37
2023-04-26T07:14:58.739Z,4.53
2023-04-26T07:17:25.425Z,4.10
2023-04-26T07:19:52.526Z,4.17
2023-04-26T07:22:19.823Z,3.47
2023-04-26T07:24:47.151Z,3.60
2023-04-26T07:27:13.869Z,3.17
2023-04-26T07:29:40.576Z,3.93
2023-04-26T07:32:07.270Z,3.70
2023-04-26T07:34:33.983Z,3.23
2023-04-26T07:37:00.778Z,2.73
2023-04-26T07:39:27.579Z,3.40
2023-04-26T07:41:54.281Z,3.20
2023-04-26T07:44:21.291Z,2.57
2023-04-26T07:46:48.569Z,2.80
2023-04-26T07:49:15.300Z,3.43
2023-04-26T07:51:43.854Z,2.90
2023-04-26T07:54:11.202Z,3.10
2023-04-26T07:56:37.948Z,3.33
2023-04-26T07:59:05.302Z,3.97
2023-04-26T08:01:31.996Z,3.20
2023-04-26T08:03:59.285Z,3.10
2023-04-26T08:06:26.982Z,2.83
2023-04-26T08:08:54.166Z,3.30
2023-04-26T08:11:20.937Z,3.37
2023-04-26T08:13:48.249Z,3.17
2023-04-26T08:16:15.075Z,3.03
2023-04-26T08:18:43.432Z,3.47
2023-04-26T08:21:12.205Z,3.23
2023-04-26T08:23:38.919Z,3.67
2023-04-26T08:26:06.744Z,2.83
2023-04-26T08:28:33.427Z,3.00
2023-04-26T08:31:00.196Z,3.10
2023-04-26T08:33:27.044Z,3.33
2023-04-26T08:35:53.891Z,3.30
2023-04-26T08:38:22.933Z,3.23
2023-04-26T08:40:51.759Z,3.60
2023-04-26T08:43:18.551Z,4.00
2023-04-26T08:45:46.673Z,3.20
2023-04-26T08:48:18.427Z,3.40
2023-04-26T08:50:46.858Z,3.30
2023-04-26T08:53:18.099Z,3.20
2023-04-26T08:55:50.766Z,2.80
2023-04-26T08:58:18.433Z,3.37
2023-04-26T09:00:48.650Z,2.90
2023-04-26T09:03:15.580Z,3.10
2023-04-26T09:05:46.277Z,3.70
2023-04-26T09:08:16.936Z,2.60
2023-04-26T09:10:44.024Z,3.03
2023-04-26T09:13:11.564Z,2.80
2023-04-26T09:15:38.780Z,2.67
2023-04-26T09:18:17.878Z,2.90
2023-04-26T09:20:45.435Z,2.67
2023-04-26T09:23:12.166Z,3.20
2023-04-26T09:25:38.840Z,3.27
2023-04-26T09:28:19.324Z,3.33
2023-04-26T09:30:46.200Z,3.20
2023-04-26T09:33:12.931Z,2.90
2023-04-26T09:35:40.628Z,3.03
2023-04-26T09:38:13.816Z,3.20
2023-04-26T09:40:45.065Z,2.47
2023-04-26T09:43:12.915Z,2.53
2023-04-26T09:45:46.107Z,2.30
2023-04-26T09:48:16.996Z,2.30
2023-04-26T09:50:47.256Z,2.20
2023-04-26T09:53:34.481Z,2.40
2023-04-26T09:56:11.710Z,2.30
2023-04-26T09:58:39.658Z,2.17
2023-04-26T10:01:10.620Z,2.47
2023-04-26T10:03:38.139Z,2.50
2023-04-26T10:06:05.320Z,2.20
2023-04-26T10:08:33.091Z,2.10
2023-04-26T10:11:01.699Z,2.57
2023-04-26T10:13:28.464Z,2.83
2023-04-26T10:15:56.770Z,2.63
2023-04-26T10:18:23.579Z,2.70
2023-04-26T10:20:52.260Z,3.10
2023-04-26T10:23:25.848Z,2.63
2023-04-26T10:25:53.064Z,2.43
2023-04-26T10:28:39.195Z,3.10
2023-04-26T10:31:07.281Z,2.90
2023-04-26T10:33:34.060Z,2.73
2023-04-26T10:36:09.861Z,2.80
2023-04-26T10:38:37.398Z,2.73
2023-04-26T10:41:23.976Z,2.37
2023-04-26T10:43:50.774Z,2.60
2023-04-26T10:46:34.184Z,2.70
2023-04-26T10:49:12.394Z,2.70
2023-04-26T10:51:39.112Z,2.87
2023-04-26T10:54:05.806Z,2.60
2023-04-26T10:56:32.497Z,2.80
2023-04-26T10:59:33.207Z,2.07
2023-04-26T11:02:00.661Z,2.77
2023-04-26T11:04:47.594Z,3.20
2023-04-26T11:07:14.392Z,2.83
2023-04-26T11:09:48.161Z,3.00
2023-04-26T11:12:15.904Z,2.47
2023-04-26T11:14:43.454Z,2.90
2023-04-26T11:17:10.652Z,2.50
2023-04-26T11:19:37.441Z,2.70
2023-04-26T11:22:06.849Z,2.50
2023-04-26T11:24:36.808Z,2.70
2023-04-26T11:27:12.672Z,2.70
2023-04-26T11:29:39.632Z,2.60
2023-04-26T11:32:07.011Z,2.97
2023-04-26T11:34:34.827Z,2.63
2023-04-26T11:37:05.183Z,3.00
2023-04-26T11:39:32.570Z,2.60
2023-04-26T11:42:09.589Z,2.67
2023-04-26T11:44:37.574Z,2.47
2023-04-26T11:47:07.627Z,3.23
2023-04-26T11:49:36.194Z,3.00
2023-04-26T11:52:03.356Z,3.20
2023-04-26T11:54:30.973Z,2.73
2023-04-26T11:57:01.136Z,3.03
2023-04-26T11:59:29.572Z,2.87
2023-04-26T12:02:01.783Z,3.30
2023-04-26T12:04:30.442Z,2.50
2023-04-26T12:06:57.896Z,2.73
2023-04-26T12:09:25.132Z,2.97
2023-04-26T12:12:02.217Z,4.00
2023-04-26T12:14:33.268Z,3.30
2023-04-26T12:17:01.625Z,3.67
2023-04-26T12:19:28.597Z,3.03
2023-04-26T12:21:56.402Z,3.17
2023-04-26T12:24:23.186Z,3.33
2023-04-26T12:26:50.006Z,3.07
2023-04-26T12:29:16.815Z,3.30
2023-04-26T12:31:43.527Z,3.07
2023-04-26T12:34:10.528Z,3.50
2023-04-26T12:36:37.396Z,2.90
2023-04-26T12:39:05.521Z,2.80
2023-04-26T12:41:32.577Z,2.70
2023-04-26T12:43:59.314Z,3.00
2023-04-26T12:46:26.872Z,3.10
2023-04-26T12:48:53.576Z,3.13
2023-04-26T12:51:20.580Z,3.00
2023-04-26T12:53:47.299Z,2.80
2023-04-26T12:56:15.259Z,3.43
2023-04-26T12:58:41.956Z,3.33
2023-04-26T13:01:09.265Z,3.33
2023-04-26T13:03:36.587Z,3.50
2023-04-26T13:06:03.610Z,3.57
2023-04-26T13:08:30.367Z,3.23
2023-04-26T13:10:57.276Z,3.50
2023-04-26T13:13:32.187Z,3.47
2023-04-26T13:16:07.260Z,3.20
2023-04-26T13:18:34.005Z,2.80
2023-04-26T13:21:01.456Z,3.17
2023-04-26T13:23:28.113Z,3.10
2023-04-26T13:25:55.304Z,3.03
2023-04-26T13:28:21.978Z,3.10
2023-04-26T13:30:48.716Z,3.27
2023-04-26T13:33:15.704Z,3.27
2023-04-26T13:35:42.493Z,3.27
2023-04-26T13:38:09.332Z,3.30
2023-04-26T13:40:37.416Z,3.33
2023-04-26T13:43:04.252Z,2.90
2023-04-26T13:45:30.952Z,3.33
2023-04-26T13:47:57.734Z,3.10
2023-04-26T13:50:24.475Z,3.20
2023-04-26T13:52:53.212Z,3.13
2023-04-26T13:55:20.015Z,3.03
2023-04-26T13:57:46.730Z,3.03
2023-04-26T14:00:14.296Z,3.67
2023-04-26T14:02:41.329Z,3.73
2023-04-26T14:05:09.438Z,3.70
2023-04-26T14:07:36.677Z,3.40
2023-04-26T14:10:04.195Z,3.47
2023-04-26T14:12:31.166Z,3.40
2023-04-26T14:14:58.012Z,3.60
2023-04-26T14:17:25.893Z,3.30
2023-04-26T14:19:54.821Z,3.83
2023-04-26T14:22:22.145Z,2.60
2023-04-26T14:24:49.303Z,3.73
2023-04-26T14:27:17.065Z,3.63
2023-04-26T14:29:43.871Z,4.17
2023-04-26T14:32:10.728Z,3.97
2023-04-26T14:34:39.338Z,3.87
2023-04-26T14:37:07.311Z,3.87
2023-04-26T14:39:34.291Z,3.67
2023-04-26T14:42:01.894Z,3.87
2023-04-26T14:44:29.192Z,4.80
2023-04-26T14:46:55.969Z,3.70
2023-04-26T14:49:22.779Z,4.10
2023-04-26T14:51:51.214Z,4.10
2023-04-26T14:54:19.429Z,4.10
2023-04-26T14:56:46.468Z,3.60
2023-04-26T14:59:13.181Z,4.30
2023-04-26T15:01:39.951Z,4.20
2023-04-26T15:04:06.858Z,4.67
2023-04-26T15:06:34.400Z,4.37
2023-04-26T15:09:01.565Z,4.40
2023-04-26T15:11:28.883Z,4.93
2023-04-26T15:13:55.696Z,4.13
2023-04-26T15:16:23.024Z,5.10
2023-04-26T15:18:49.835Z,3.50
2023-04-26T15:21:17.198Z,3.80
2023-04-26T15:23:44.445Z,4.60
2023-04-26T15:26:11.442Z,4.30
2023-04-26T15:28:38.124Z,4.63
2023-04-26T15:31:05.769Z,4.73
2023-04-26T15:33:32.656Z,4.50
2023-04-26T15:35:59.356Z,5.03
2023-04-26T15:38:26.240Z,4.33
2023-04-26T15:40:53.979Z,4.40
2023-04-26T15:43:20.986Z,4.50
2023-04-26T15:45:49.143Z,3.93
2023-04-26T15:48:16.235Z,5.57
2023-04-26T15:50:43.094Z,4.13
2023-04-26T15:53:10.066Z,4.83
2023-04-26T15:55:36.939Z,4.53
2023-04-26T15:58:03.782Z,4.83
2023-04-26T16:00:31.828Z,4.07
2023-04-26T16:02:58.658Z,5.17
2023-04-26T16:05:25.588Z,4.47
2023-04-26T16:07:52.471Z,4.60
2023-04-26T16:10:19.306Z,4.30
2023-04-26T16:12:46.834Z,3.67
2023-04-26T16:15:14.665Z,3.80
2023-04-26T16:17:41.710Z,3.70
2023-04-26T16:20:08.924Z,3.47
2023-04-26T16:22:35.977Z,4.23
2023-04-26T16:25:03.912Z,3.93
2023-04-26T16:27:30.829Z,3.60
2023-04-26T16:29:57.784Z,4.00
2023-04-26T16:32:26.148Z,3.67
2023-04-26T16:34:53.155Z,3.90
2023-04-26T16:37:20.001Z,3.90
2023-04-26T16:39:46.810Z,3.77
2023-04-26T16:42:13.489Z,3.73
2023-04-26T16:44:40.940Z,3.43
2023-04-26T16:47:07.675Z,3.30
2023-04-26T16:49:34.693Z,4.30
2023-04-26T16:52:01.988Z,3.83
2023-04-26T16:54:28.736Z,3.70
2023-04-26T16:56:56.489Z,4.43
2023-04-26T16:59:23.405Z,3.90
2023-04-26T17:01:50.867Z,3.97
2023-04-26T17:04:17.971Z,4.27
2023-04-26T17:06:46.065Z,3.47
2023-04-26T17:09:13.176Z,4.00
2023-04-26T17:11:43.646Z,3.67
2023-04-26T17:14:10.748Z,3.70
2023-04-26T17:16:37.567Z,3.80
2023-04-26T17:19:04.495Z,3.73
2023-04-26T17:21:32.054Z,3.57
2023-04-26T17:23:58.788Z,4.07
2023-04-26T17:26:25.532Z,3.97
2023-04-26T17:28:53.014Z,3.57
2023-04-26T17:31:20.141Z,3.67
2023-04-26T17:33:47.054Z,3.83
2023-04-26T17:36:13.806Z,4.07
2023-04-26T17:38:40.672Z,4.20
2023-04-26T17:41:07.388Z,4.00
2023-04-26T17:43:34.113Z,3.57
2023-04-26T17:46:01.454Z,3.83
2023-04-26T17:48:29.254Z,3.83
2023-04-26T17:50:56.558Z,4.60
2023-04-26T17:53:23.270Z,4.17
2023-04-26T17:55:51.296Z,4.10
2023-04-26T17:58:18.110Z,3.90
2023-04-26T18:00:45.011Z,4.23
2023-04-26T18:03:12.290Z,4.27
2023-04-26T18:05:39.509Z,3.90
2023-04-26T18:08:06.398Z,4.20
2023-04-26T18:10:33.166Z,3.80
2023-04-26T18:12:59.880Z,4.10
2023-04-26T18:15:26.812Z,4.20
2023-04-26T18:17:53.620Z,3.73
2023-04-26T18:20:20.427Z,4.23
2023-04-26T18:22:47.280Z,4.17
2023-04-26T18:25:14.382Z,4.37
2023-04-26T18:27:41.143Z,4.37
2023-04-26T18:30:08.393Z,4.00
2023-04-26T18:32:35.228Z,4.60
2023-04-26T18:35:05.037Z,3.73
2023-04-26T18:37:31.819Z,4.03
2023-04-26T18:39:59.801Z,4.83
2023-04-26T18:42:26.614Z,3.97
2023-04-26T18:44:53.663Z,4.00
2023-04-26T18:47:21.295Z,4.47
2023-04-26T18:49:48.409Z,4.10
2023-04-26T18:52:15.099Z,4.60
2023-04-26T18:54:41.809Z,3.77
2023-04-26T18:57:10.840Z,4.23
2023-04-26T18:59:38.825Z,4.17
2023-04-26T19:02:05.889Z,3.93
2023-04-26T19:04:34.209Z,3.50
2023-04-26T19:07:01.139Z,4.27
2023-04-26T19:09:28.379Z,4.37
2023-04-26T19:11:55.216Z,4.73
2023-04-26T19:14:21.902Z,4.10
2023-04-26T19:16:48.698Z,4.60
2023-04-26T19:19:16.537Z,4.50
2023-04-26T19:21:43.305Z,4.50
2023-04-26T19:24:10.043Z,4.90
2023-04-26T19:26:37.255Z,4.37
2023-04-26T19:29:06.587Z,4.70
2023-04-26T19:31:34.192Z,3.87
2023-04-26T19:34:01.004Z,4.70
2023-04-26T19:36:30.131Z,4.47
2023-04-26T19:38:57.146Z,4.30
2023-04-26T19:41:24.237Z,4.33
2023-04-26T19:43:51.236Z,4.20
2023-04-26T19:46:18.136Z,4.63
2023-04-26T19:48:45.008Z,4.63
2023-04-26T19:51:16.287Z,3.87
2023-04-26T19:53:45.685Z,4.33
2023-04-26T19:56:12.920Z,4.00
2023-04-26T19:58:39.654Z,4.70
2023-04-26T20:01:08.453Z,4.27
2023-04-26T20:03:35.669Z,4.60
2023-04-26T20:06:02.558Z,4.53
2023-04-26T20:08:30.967Z,4.47
2023-04-26T20:11:01.756Z,4.73
2023-04-26T20:13:28.980Z,4.57
2023-04-26T20:15:55.916Z,5.00
2023-04-26T20:18:22.918Z,4.47
2023-04-26T20:20:52.056Z,4.80
2023-04-26T20:23:18.805Z,4.30
2023-04-26T20:25:46.036Z,4.50
2023-04-26T20:28:12.736Z,4.60
2023-04-26T20:30:39.512Z,4.80
2023-04-26T20:33:06.691Z,4.87
2023-04-26T20:35:33.452Z,4.73
2023-04-26T20:38:00.256Z,4.57
2023-04-26T20:40:27.682Z,4.73
2023-04-26T20:42:54.612Z,5.37
2023-04-26T20:45:21.456Z,4.97
2023-04-26T20:47:48.460Z,4.60
2023-04-26T20:50:15.265Z,4.23
2023-04-26T20:52:41.990Z,4.30
2023-04-26T20:55:08.966Z,4.80
2023-04-26T20:57:36.572Z,5.20
2023-04-26T21:00:03.849Z,4.80
2023-04-26T21:02:32.131Z,4.70
2023-04-26T21:04:59.020Z,4.90
2023-04-26T21:07:25.964Z,4.77
2023-04-26T21:09:52.654Z,4.40
2023-04-26T21:12:19.415Z,4.37
2023-04-26T21:14:48.143Z,4.60
2023-04-26T21:17:15.274Z,5.27
2023-04-26T21:19:42.019Z,4.97
2023-04-26T21:22:09.630Z,5.50
2023-04-26T21:24:36.926Z,4.77
2023-04-26T21:27:04.081Z,4.97
2023-04-26T21:29:31.885Z,5.23
2023-04-26T21:31:58.661Z,5.13
2023-04-26T21:34:25.610Z,5.50
2023-04-26T21:36:53.421Z,5.50
2023-04-26T21:39:20.245Z,5.67
2023-04-26T21:41:46.934Z,5.60
2023-04-26T21:44:13.783Z,5.30
2023-04-26T21:46:40.593Z,5.30
2023-04-26T21:49:07.510Z,5.63
2023-04-26T21:51:34.476Z,5.53
2023-04-26T21:54:01.351Z,5.50
2023-04-26T21:56:28.071Z,5.40
2023-04-26T21:58:54.708Z,5.37
2023-04-26T22:01:21.536Z,4.83
2023-04-26T22:03:48.577Z,4.87
2023-04-26T22:06:16.034Z,5.20
2023-04-26T22:08:43.050Z,5.43
2023-04-26T22:11:09.735Z,5.60
2023-04-26T22:13:36.629Z,5.53
2023-04-26T22:16:03.446Z,6.80
2023-04-26T22:18:30.336Z,6.10
2023-04-26T22:20:57.199Z,5.97
2023-04-26T22:23:23.865Z,6.03
2023-04-26T22:25:50.581Z,5.77
2023-04-26T22:28:17.730Z,5.67
2023-04-26T22:30:44.412Z,5.73
2023-04-26T22:33:12.521Z,5.97
2023-04-26T22:35:39.829Z,5.60
2023-04-26T22:38:06.508Z,5.77
2023-04-26T22:40:33.493Z,5.67
2023-04-26T22:43:00.212Z,5.70
2023-04-26T22:45:27.102Z,5.00
2023-04-26T22:47:53.829Z,5.10
2023-04-26T22:50:20.573Z,5.30
2023-04-26T22:52:47.364Z,5.17
2023-04-26T22:55:14.080Z,5.30
2023-04-26T22:57:40.921Z,5.30
2023-04-26T23:00:10.021Z,5.33
2023-04-26T23:02:37.268Z,5.47
2023-04-26T23:05:05.537Z,5.30
2023-04-26T23:07:33.252Z,5.13
2023-04-26T23:10:00.065Z,5.43
2023-04-26T23:12:27.825Z,4.77
2023-04-26T23:15:00.598Z,6.40
2023-04-26T23:17:27.616Z,5.60
2023-04-26T23:19:54.429Z,5.77
2023-04-26T23:22:21.150Z,5.73
2023-04-26T23:24:47.904Z,5.90
2023-04-26T23:27:14.667Z,6.07
2023-04-26T23:29:41.470Z,6.00
2023-04-26T23:32:08.177Z,5.50
2023-04-26T23:34:34.935Z,6.00
2023-04-26T23:37:07.427Z,5.20
2023-04-26T23:39:34.956Z,5.57
2023-04-26T23:42:02.482Z,5.33
2023-04-26T23:44:29.462Z,6.30
2023-04-26T23:46:56.265Z,5.33
2023-04-26T23:49:23.010Z,6.33
2023-04-26T23:51:49.738Z,5.33
2023-04-26T23:54:16.682Z,5.60
2023-04-26T23:56:43.343Z,5.80
2023-04-26T23:59:10.124Z,6.00
